createdAt,value
2022-11-24T00:01:27.361Z,95603
2022-11-24T00:04:27.397Z,95597
2022-11-24T00:05:27.377Z,95597
2022-11-24T00:06:27.381Z,95596
2022-11-24T00:07:27.457Z,95596
2022-11-24T00:08:27.378Z,95596
2022-11-24T00:09:27.393Z,95598
2022-11-24T00:11:27.400Z,95600
2022-11-24T00:12:27.431Z,95606
2022-11-24T00:13:27.414Z,95607
2022-11-24T00:14:27.404Z,95606
2022-11-24T00:15:27.426Z,95607
2022-11-24T00:16:27.467Z,95614
2022-11-24T00:17:27.471Z,95611
2022-11-24T00:18:27.435Z,95613
2022-11-24T00:19:27.434Z,95617
2022-11-24T00:21:27.431Z,95615
2022-11-24T00:23:27.444Z,95620
2022-11-24T00:24:27.420Z,95620
2022-11-24T00:25:27.470Z,95627
2022-11-24T00:27:27.460Z,95629
2022-11-24T00:29:27.467Z,95634
2022-11-24T00:30:27.521Z,95637
2022-11-24T00:31:27.545Z,95637
2022-11-24T00:32:27.438Z,95641
2022-11-24T00:33:27.467Z,95642
2022-11-24T00:34:27.472Z,95643
2022-11-24T00:36:27.446Z,95643
2022-11-24T00:37:27.473Z,95643
2022-11-24T00:38:27.490Z,95645
2022-11-24T00:39:27.450Z,95645
2022-11-24T00:40:32.108Z,95649
2022-11-24T00:41:27.478Z,95649
2022-11-24T00:42:27.475Z,95648
2022-11-24T00:43:27.511Z,95645
2022-11-24T00:44:27.485Z,95645
2022-11-24T00:45:27.468Z,95649
2022-11-24T00:46:27.552Z,95655
2022-11-24T00:47:27.497Z,95653
2022-11-24T00:48:27.532Z,95655
2022-11-24T00:51:27.494Z,95652
2022-11-24T00:52:27.507Z,95656
2022-11-24T00:53:27.523Z,95660
2022-11-24T00:54:27.505Z,95660
2022-11-24T00:55:27.510Z,95657
2022-11-24T00:56:27.545Z,95663
2022-11-24T00:57:27.486Z,95663
2022-11-24T00:58:27.534Z,95654
2022-11-24T00:59:27.503Z,95659
2022-11-24T01:00:27.524Z,95664
2022-11-24T01:02:27.551Z,95665
2022-11-24T01:03:27.554Z,95670
2022-11-24T01:05:27.537Z,95677
2022-11-24T01:06:27.551Z,95679
2022-11-24T01:07:27.596Z,95677
2022-11-24T01:08:27.573Z,95678
2022-11-24T01:09:28.832Z,95678
2022-11-24T01:10:27.536Z,95674
2022-11-24T01:11:27.569Z,95674
2022-11-24T01:12:27.544Z,95674
2022-11-24T01:13:27.601Z,95671
2022-11-24T01:14:27.559Z,95671
2022-11-24T01:16:27.644Z,95679
2022-11-24T01:17:27.567Z,95684
2022-11-24T01:18:27.611Z,95687
2022-11-24T01:19:27.550Z,95689
2022-11-24T01:20:27.549Z,95693
2022-11-24T01:21:27.597Z,95694
2022-11-24T01:22:27.559Z,95691
2022-11-24T01:23:27.603Z,95694
2022-11-24T01:25:27.583Z,95695
2022-11-24T01:26:27.619Z,95697
2022-11-24T01:27:27.563Z,95697
2022-11-24T01:28:27.627Z,95708
2022-11-24T01:29:27.589Z,95708
2022-11-24T01:31:27.714Z,95709
2022-11-24T01:33:27.660Z,95715
2022-11-24T01:34:27.609Z,95711
2022-11-24T01:35:27.606Z,95713
2022-11-24T01:36:27.644Z,95714
2022-11-24T01:37:27.615Z,95710
2022-11-24T01:38:27.610Z,95710
2022-11-24T01:39:27.609Z,95716
2022-11-24T01:40:27.613Z,95714
2022-11-24T01:41:27.627Z,95722
2022-11-24T01:42:27.633Z,95722
2022-11-24T01:43:27.624Z,95718
2022-11-24T01:44:27.621Z,95720
2022-11-24T01:45:27.611Z,95720
2022-11-24T01:46:27.712Z,95721
2022-11-24T01:48:28.001Z,95731
2022-11-24T01:49:27.649Z,95729
2022-11-24T01:50:27.623Z,95729
2022-11-24T01:51:27.670Z,95730
2022-11-24T01:52:27.654Z,95728
2022-11-24T01:54:27.703Z,95731
2022-11-24T01:55:27.667Z,95730
2022-11-24T01:56:27.686Z,95732
2022-11-24T01:57:27.657Z,95728
2022-11-24T01:59:27.696Z,95736
2022-11-24T02:00:27.680Z,95734
2022-11-24T02:01:27.812Z,95738
2022-11-24T02:02:27.693Z,95733
2022-11-24T02:03:27.655Z,95733
2022-11-24T02:04:27.703Z,95738
2022-11-24T02:05:27.662Z,95733
2022-11-24T02:06:27.737Z,95737
2022-11-24T02:07:27.735Z,95737
2022-11-24T02:08:27.679Z,95734
2022-11-24T02:09:27.718Z,95738
2022-11-24T02:10:27.679Z,95738
2022-11-24T02:11:27.752Z,95741
2022-11-24T02:13:27.668Z,95741
2022-11-24T02:14:27.728Z,95744
2022-11-24T02:15:27.679Z,95744
2022-11-24T02:16:27.694Z,95744
2022-11-24T02:17:27.710Z,95740
2022-11-24T02:18:27.717Z,95739
2022-11-24T02:19:27.763Z,95745
2022-11-24T02:20:27.697Z,95745
2022-11-24T02:21:27.736Z,95746
2022-11-24T02:23:27.732Z,95742
2022-11-24T02:24:27.752Z,95744
2022-11-24T02:25:27.712Z,95744
2022-11-24T02:26:27.733Z,95746
2022-11-24T02:27:27.746Z,95751
2022-11-24T02:28:27.738Z,95751
2022-11-24T02:30:27.739Z,95742
2022-11-24T02:31:27.806Z,95742
2022-11-24T02:32:27.717Z,95746
2022-11-24T02:33:27.744Z,95750
2022-11-24T02:34:27.761Z,95750
2022-11-24T02:35:27.744Z,95749
2022-11-24T02:36:27.747Z,95749
2022-11-24T02:37:27.771Z,95750
2022-11-24T02:38:27.745Z,95750
2022-11-24T02:39:27.742Z,95754
2022-11-24T02:40:27.818Z,95755
2022-11-24T02:41:27.763Z,95755
2022-11-24T02:42:27.768Z,95755
2022-11-24T02:43:27.748Z,95753
2022-11-24T02:44:27.802Z,95757
2022-11-24T02:45:27.806Z,95752
2022-11-24T02:46:27.860Z,95752
2022-11-24T02:47:27.788Z,95757
2022-11-24T02:48:27.801Z,95758
2022-11-24T02:49:27.756Z,95758
2022-11-24T02:51:27.841Z,95762
2022-11-24T02:52:27.784Z,95760
2022-11-24T02:54:27.823Z,95758
2022-11-24T02:56:27.792Z,95762
2022-11-24T02:57:27.843Z,95768
2022-11-24T02:58:27.836Z,95765
2022-11-24T02:59:27.829Z,95765
2022-11-24T03:00:27.821Z,95763
2022-11-24T03:01:27.870Z,95764
2022-11-24T03:02:27.902Z,95765
2022-11-24T03:03:27.860Z,95761
2022-11-24T03:04:27.821Z,95764
2022-11-24T03:05:27.815Z,95764
2022-11-24T03:06:27.849Z,95767
2022-11-24T03:07:27.921Z,95769
2022-11-24T03:08:27.853Z,95774
2022-11-24T03:09:28.206Z,95774
2022-11-24T03:10:27.843Z,95774
2022-11-24T03:11:27.878Z,95774
2022-11-24T03:12:27.835Z,95776
2022-11-24T03:13:27.904Z,95776
2022-11-24T03:14:27.864Z,95776
2022-11-24T03:15:27.884Z,95774
2022-11-24T03:16:27.950Z,95775
2022-11-24T03:17:27.861Z,95773
2022-11-24T03:18:27.868Z,95772
2022-11-24T03:19:27.872Z,95771
2022-11-24T03:20:27.858Z,95771
2022-11-24T03:21:27.901Z,95773
2022-11-24T03:22:27.854Z,95773
2022-11-24T03:24:27.844Z,95774
2022-11-24T03:25:27.874Z,95767
2022-11-24T03:26:27.911Z,95767
2022-11-24T03:27:27.859Z,95770
2022-11-24T03:29:27.870Z,95766
2022-11-24T03:33:27.937Z,95766
2022-11-24T03:34:27.897Z,95764
2022-11-24T03:35:27.923Z,95762
2022-11-24T03:36:27.911Z,95759
2022-11-24T03:37:27.906Z,95755
2022-11-24T03:39:27.905Z,95756
2022-11-24T03:40:27.890Z,95758
2022-11-24T03:41:27.914Z,95758
2022-11-24T03:42:27.920Z,95759
2022-11-24T03:43:27.950Z,95762
2022-11-24T03:45:45.405Z,95765
2022-11-24T03:46:27.983Z,95768
2022-11-24T03:47:27.907Z,95768
2022-11-24T03:48:27.964Z,95767
2022-11-24T03:49:27.926Z,95771
2022-11-24T03:50:27.945Z,95773
2022-11-24T03:52:27.924Z,95769
2022-11-24T03:53:27.973Z,95766
2022-11-24T03:54:27.952Z,95767
2022-11-24T03:57:27.981Z,95770
2022-11-24T03:58:27.977Z,95767
2022-11-24T04:01:28.009Z,95769
2022-11-24T04:02:28.033Z,95773
2022-11-24T04:03:28.015Z,95766
2022-11-24T04:04:27.966Z,95766
2022-11-24T04:05:27.971Z,95769
2022-11-24T04:06:27.994Z,95771
2022-11-24T04:07:28.052Z,95771
2022-11-24T04:08:27.988Z,95777
2022-11-24T04:11:28.040Z,95783
2022-11-24T04:12:27.975Z,95783
2022-11-24T04:14:28.026Z,95781
2022-11-24T04:16:28.103Z,95783
2022-11-24T04:17:28.008Z,95783
2022-11-24T04:19:27.979Z,95784
2022-11-24T04:20:27.984Z,95783
2022-11-24T04:22:28.014Z,95784
2022-11-24T04:23:28.046Z,95792
2022-11-24T04:24:28.012Z,95791
2022-11-24T04:28:28.013Z,95796
2022-11-24T04:29:28.023Z,95799
2022-11-24T04:30:28.033Z,95799
2022-11-24T04:31:28.114Z,95803
2022-11-24T04:32:28.029Z,95818
2022-11-24T04:33:28.049Z,95813
2022-11-24T04:34:28.019Z,95813
2022-11-24T04:35:28.042Z,95814
2022-11-24T04:36:28.076Z,95814
2022-11-24T04:37:28.038Z,95814
2022-11-24T04:39:25.005Z,95823
2022-11-24T04:39:28.848Z,95821
2022-11-24T04:40:28.046Z,95821
2022-11-24T04:41:28.086Z,95819
2022-11-24T04:42:28.072Z,95819
2022-11-24T04:43:28.069Z,95819
2022-11-24T04:44:28.081Z,95818
2022-11-24T04:45:28.094Z,95821
2022-11-24T04:46:28.161Z,95821
2022-11-24T04:47:28.080Z,95826
2022-11-24T04:48:28.069Z,95819
2022-11-24T04:49:28.100Z,95819
2022-11-24T04:50:28.086Z,95822
2022-11-24T04:52:28.083Z,95831
2022-11-24T04:53:28.058Z,95826
2022-11-24T04:54:28.104Z,95830
2022-11-24T04:55:28.075Z,95830
2022-11-24T04:56:28.113Z,95826
2022-11-24T04:57:28.069Z,95826
2022-11-24T04:58:28.093Z,95828
2022-11-24T04:59:28.114Z,95827
2022-11-24T05:01:28.234Z,95825
2022-11-24T05:04:28.226Z,95839
2022-11-24T05:05:28.108Z,95839
2022-11-24T05:07:28.158Z,95843
2022-11-24T05:08:28.134Z,95847
2022-11-24T05:09:42.001Z,95850
2022-11-24T05:10:28.109Z,95848
2022-11-24T05:11:28.130Z,95851
2022-11-24T05:12:28.161Z,95850
2022-11-24T05:13:28.123Z,95843
2022-11-24T05:14:28.189Z,95846
2022-11-24T05:15:28.175Z,95848
2022-11-24T05:16:28.251Z,95856
2022-11-24T05:17:28.182Z,95852
2022-11-24T05:18:28.193Z,95855
2022-11-24T05:19:31.218Z,95852
2022-11-24T05:20:28.177Z,95851
2022-11-24T05:21:28.168Z,95848
2022-11-24T05:22:28.186Z,95846
2022-11-24T05:24:28.190Z,95848
2022-11-24T05:26:28.211Z,95849
2022-11-24T05:27:28.217Z,95850
2022-11-24T05:28:28.150Z,95850
2022-11-24T05:30:28.174Z,95846
2022-11-24T05:32:28.217Z,95848
2022-11-24T05:33:28.193Z,95842
2022-11-24T05:35:28.220Z,95844
2022-11-24T05:36:28.168Z,95844
2022-11-24T05:39:28.227Z,95850
2022-11-24T05:41:28.223Z,95852
2022-11-24T05:42:28.254Z,95853
2022-11-24T05:43:28.235Z,95852
2022-11-24T05:44:28.243Z,95852
2022-11-24T05:45:28.232Z,95850
2022-11-24T05:46:28.321Z,95852
2022-11-24T05:48:28.205Z,95857
2022-11-24T05:49:28.214Z,95857
2022-11-24T05:50:28.257Z,95859
2022-11-24T05:51:28.225Z,95866
2022-11-24T05:52:28.303Z,95854
2022-11-24T05:53:28.254Z,95854
2022-11-24T05:54:28.270Z,95853
2022-11-24T05:55:28.273Z,95848
2022-11-24T05:57:28.258Z,95854
2022-11-24T05:58:28.266Z,95854
2022-11-24T05:59:28.269Z,95852
2022-11-24T06:00:28.307Z,95846
2022-11-24T06:01:28.371Z,95847
2022-11-24T06:02:28.420Z,95847
2022-11-24T06:03:28.297Z,95841
2022-11-24T06:04:28.253Z,95845
2022-11-24T06:05:28.319Z,95839
2022-11-24T06:06:28.294Z,95838
2022-11-24T06:07:28.394Z,95840
2022-11-24T06:08:31.247Z,95836
2022-11-24T06:09:28.258Z,95836
2022-11-24T06:10:28.299Z,95839
2022-11-24T06:11:28.277Z,95838
2022-11-24T06:12:28.273Z,95838
2022-11-24T06:14:28.275Z,95839
2022-11-24T06:15:28.343Z,95833
2022-11-24T06:16:28.387Z,95832
2022-11-24T06:17:28.317Z,95832
2022-11-24T06:18:28.315Z,95838
2022-11-24T06:19:28.308Z,95831
2022-11-24T06:20:32.332Z,95841
2022-11-24T06:21:28.285Z,95841
2022-11-24T06:22:28.322Z,95837
2022-11-24T06:23:28.322Z,95839
2022-11-24T06:24:28.321Z,95840
2022-11-24T06:25:28.341Z,95842
2022-11-24T06:26:28.307Z,95840
2022-11-24T06:27:28.339Z,95839
2022-11-24T06:28:28.304Z,95840
2022-11-24T06:29:28.343Z,95840
2022-11-24T06:31:28.380Z,95845
2022-11-24T06:32:28.320Z,95852
2022-11-24T06:33:28.353Z,95853
2022-11-24T06:34:28.317Z,95853
2022-11-24T06:35:28.352Z,95852
2022-11-24T06:38:28.351Z,95851
2022-11-24T06:40:28.365Z,95854
2022-11-24T06:41:28.331Z,95857
2022-11-24T06:42:28.413Z,95860
2022-11-24T06:44:28.396Z,95856
2022-11-24T06:45:28.414Z,95857
2022-11-24T06:46:28.357Z,95863
2022-11-24T06:47:28.390Z,95863
2022-11-24T06:49:28.387Z,95859
2022-11-24T06:50:33.460Z,95860
2022-11-24T06:51:28.404Z,95861
2022-11-24T06:53:28.410Z,95851
2022-11-24T06:54:28.402Z,95851
2022-11-24T06:55:28.535Z,95852
2022-11-24T06:56:28.386Z,95852
2022-11-24T06:57:28.403Z,95853
2022-11-24T06:58:28.520Z,95854
2022-11-24T06:59:28.397Z,95855
2022-11-24T07:01:28.525Z,95857
2022-11-24T07:02:28.391Z,95859
2022-11-24T07:03:28.440Z,95858
2022-11-24T07:04:28.447Z,95856
2022-11-24T07:05:28.466Z,95856
2022-11-24T07:06:28.460Z,95861
2022-11-24T07:09:28.452Z,95865
2022-11-24T07:10:28.481Z,95863
2022-11-24T07:11:28.428Z,95863
2022-11-24T07:12:28.446Z,95867
2022-11-24T07:13:28.462Z,95866
2022-11-24T07:14:28.419Z,95870
2022-11-24T07:15:28.486Z,95870
2022-11-24T07:16:28.494Z,95872
2022-11-24T07:17:28.412Z,95872
2022-11-24T07:18:28.466Z,95878
2022-11-24T07:19:28.465Z,95876
2022-11-24T07:20:28.433Z,95875
2022-11-24T07:21:28.513Z,95874
2022-11-24T07:24:28.459Z,95864
2022-11-24T07:26:28.482Z,95859
2022-11-24T07:27:28.511Z,95857
2022-11-24T07:28:28.520Z,95863
2022-11-24T07:29:28.451Z,95858
2022-11-24T07:30:28.673Z,95866
2022-11-24T07:31:28.542Z,95871
2022-11-24T07:32:28.476Z,95883
2022-11-24T07:33:28.543Z,95876
2022-11-24T07:34:28.453Z,95876
2022-11-24T07:35:28.471Z,95883
2022-11-24T07:36:28.539Z,95882
2022-11-24T07:37:31.531Z,95882
2022-11-24T07:38:28.479Z,95879
2022-11-24T07:39:28.479Z,95875
2022-11-24T07:40:28.495Z,95877
2022-11-24T07:41:28.554Z,95872
2022-11-24T07:42:28.661Z,95872
2022-11-24T07:43:28.501Z,95870
2022-11-24T07:44:28.479Z,95870
2022-11-24T07:45:28.563Z,95866
2022-11-24T07:46:28.660Z,95866
2022-11-24T07:47:28.541Z,95867
2022-11-24T07:48:28.689Z,95875
2022-11-24T07:49:28.535Z,95877
2022-11-24T07:50:28.554Z,95876
2022-11-24T07:51:28.580Z,95876
2022-11-24T07:52:28.545Z,95879
2022-11-24T07:53:28.605Z,95879
2022-11-24T07:54:28.602Z,95894
2022-11-24T07:55:28.519Z,95896
2022-11-24T07:56:28.597Z,95900
2022-11-24T07:57:28.537Z,95899
2022-11-24T07:58:32.388Z,95904
2022-11-24T07:59:28.570Z,95899
2022-11-24T08:00:28.571Z,95904
2022-11-24T08:01:28.612Z,95906
2022-11-24T08:02:28.567Z,95909
2022-11-24T08:03:28.737Z,95910
2022-11-24T08:05:28.597Z,95909
2022-11-24T08:06:32.556Z,95910
2022-11-24T08:07:28.616Z,95911
2022-11-24T08:08:28.593Z,95917
2022-11-24T08:09:28.576Z,95919
2022-11-24T08:10:28.566Z,95926
2022-11-24T08:11:28.612Z,95924
2022-11-24T08:12:28.609Z,95926
2022-11-24T08:13:28.562Z,95930
2022-11-24T08:14:28.597Z,95935
2022-11-24T08:15:28.571Z,95940
2022-11-24T08:16:28.691Z,95941
2022-11-24T08:17:28.615Z,95941
2022-11-24T08:18:28.616Z,95949
2022-11-24T08:20:28.632Z,95945
2022-11-24T08:22:28.646Z,95944
2022-11-24T08:23:28.577Z,95944
2022-11-24T08:24:28.577Z,95960
2022-11-24T08:25:28.670Z,95960
2022-11-24T08:26:28.613Z,95960
2022-11-24T08:27:28.664Z,95958
2022-11-24T08:28:28.633Z,95956
2022-11-24T08:29:28.631Z,95956
2022-11-24T08:30:28.634Z,95962
2022-11-24T08:31:28.642Z,95962
2022-11-24T08:32:28.636Z,95961
2022-11-24T08:33:28.648Z,95961
2022-11-24T08:34:28.654Z,95968
2022-11-24T08:35:28.647Z,95978
2022-11-24T08:36:28.614Z,95978
2022-11-24T08:37:28.691Z,95982
2022-11-24T08:38:28.670Z,95989
2022-11-24T08:39:28.639Z,95981
2022-11-24T08:40:28.704Z,95980
2022-11-24T08:41:28.651Z,95984
2022-11-24T08:42:28.707Z,95984
2022-11-24T08:43:28.630Z,95986
2022-11-24T08:44:28.706Z,95984
2022-11-24T08:45:30.635Z,95987
2022-11-24T08:46:28.787Z,95978
2022-11-24T08:47:28.693Z,95979
2022-11-24T08:48:28.661Z,95973
2022-11-24T08:49:28.646Z,95979
2022-11-24T08:50:28.711Z,95977
2022-11-24T08:53:28.677Z,95985
2022-11-24T08:54:28.702Z,95991
2022-11-24T08:56:28.747Z,95990
2022-11-24T08:57:28.790Z,95990
2022-11-24T08:58:28.713Z,95984
2022-11-24T08:59:28.823Z,95993
2022-11-24T09:00:28.700Z,95994
2022-11-24T09:02:28.827Z,96000
2022-11-24T09:03:28.728Z,95999
2022-11-24T09:04:28.711Z,96008
2022-11-24T09:05:51.125Z,96015
2022-11-24T09:06:28.703Z,96014
2022-11-24T09:07:28.795Z,96019
2022-11-24T09:08:28.764Z,96019
2022-11-24T09:09:28.727Z,96027
2022-11-24T09:10:28.775Z,96022
2022-11-24T09:11:28.706Z,96025
2022-11-24T09:13:28.769Z,96025
2022-11-24T09:14:28.745Z,96031
2022-11-24T09:15:28.787Z,96037
2022-11-24T09:16:28.822Z,96033
2022-11-24T09:17:28.735Z,96030
2022-11-24T09:18:30.379Z,96033
2022-11-24T09:19:28.737Z,96028
2022-11-24T09:20:28.772Z,96031
2022-11-24T09:21:28.769Z,96028
2022-11-24T09:22:28.768Z,96025
2022-11-24T09:23:28.782Z,96026
2022-11-24T09:24:28.786Z,96026
2022-11-24T09:25:28.784Z,96019
2022-11-24T09:26:28.726Z,96019
2022-11-24T09:27:28.770Z,96025
2022-11-24T09:28:28.786Z,96025
2022-11-24T09:29:28.790Z,96027
2022-11-24T09:30:28.977Z,96027
2022-11-24T09:31:28.929Z,96030
2022-11-24T09:32:28.777Z,96030
2022-11-24T09:33:28.789Z,96036
2022-11-24T09:34:28.744Z,96038
2022-11-24T09:35:28.761Z,96049
2022-11-24T09:36:28.757Z,96036
2022-11-24T09:37:32.518Z,96040
2022-11-24T09:38:28.838Z,96042
2022-11-24T09:39:28.758Z,96042
2022-11-24T09:40:28.822Z,96040
2022-11-24T09:41:28.794Z,96041
2022-11-24T09:42:28.763Z,96041
2022-11-24T09:43:28.815Z,96040
2022-11-24T09:44:28.812Z,96040
2022-11-24T09:45:56.986Z,96039
2022-11-24T09:46:28.894Z,96051
2022-11-24T09:47:28.806Z,96044
2022-11-24T09:48:28.846Z,96050
2022-11-24T09:49:28.799Z,96055
2022-11-24T09:50:28.786Z,96055
2022-11-24T09:51:28.813Z,96048
2022-11-24T09:52:28.799Z,96048
2022-11-24T09:53:28.896Z,96049
2022-11-24T09:54:28.803Z,96049
2022-11-24T09:55:28.810Z,96052
2022-11-24T09:56:28.894Z,96052
2022-11-24T09:57:34.156Z,96053
2022-11-24T09:58:28.847Z,96051
2022-11-24T09:59:28.872Z,96047
2022-11-24T10:00:28.845Z,96047
2022-11-24T10:01:28.952Z,96051
2022-11-24T10:02:28.858Z,96054
2022-11-24T10:03:28.910Z,96052
2022-11-24T10:04:28.834Z,96050
2022-11-24T10:05:28.818Z,96050
2022-11-24T10:06:28.898Z,96053
2022-11-24T10:07:28.963Z,96055
2022-11-24T10:08:28.918Z,96051
2022-11-24T10:09:28.851Z,96051
2022-11-24T10:10:28.908Z,96053
2022-11-24T10:11:28.885Z,96056
2022-11-24T10:12:28.894Z,96056
2022-11-24T10:13:28.860Z,96056
2022-11-24T10:14:28.841Z,96056
2022-11-24T10:15:28.986Z,96060
2022-11-24T10:16:28.962Z,96057
2022-11-24T10:17:28.890Z,96058
2022-11-24T10:18:28.907Z,96058
2022-11-24T10:19:36.268Z,96069
2022-11-24T10:20:28.875Z,96060
2022-11-24T10:21:28.903Z,96064
2022-11-24T10:22:28.881Z,96064
2022-11-24T10:23:28.876Z,96061
2022-11-24T10:24:28.937Z,96070
2022-11-24T10:25:28.892Z,96071
2022-11-24T10:26:28.931Z,96068
2022-11-24T10:27:28.941Z,96066
2022-11-24T10:28:28.906Z,96068
2022-11-24T10:29:28.937Z,96069
2022-11-24T10:30:28.896Z,96067
2022-11-24T10:31:29.003Z,96066
2022-11-24T10:32:28.903Z,96061
2022-11-24T10:33:30.963Z,96061
2022-11-24T10:34:28.947Z,96062
2022-11-24T10:35:28.923Z,96065
2022-11-24T10:36:28.910Z,96064
2022-11-24T10:37:28.915Z,96064
2022-11-24T10:38:28.964Z,96059
2022-11-24T10:39:29.017Z,96056
2022-11-24T10:40:55.796Z,96055
2022-11-24T10:41:28.919Z,96055
2022-11-24T10:42:28.947Z,96053
2022-11-24T10:43:28.988Z,96055
2022-11-24T10:45:28.991Z,96051
2022-11-24T10:46:29.547Z,96053
2022-11-24T10:47:29.019Z,96045
2022-11-24T10:48:28.956Z,96045
2022-11-24T10:49:28.948Z,96049
2022-11-24T10:50:28.992Z,96054
2022-11-24T10:51:28.947Z,96059
2022-11-24T10:52:29.026Z,96059
2022-11-24T10:53:28.962Z,96059
2022-11-24T10:54:28.979Z,96059
2022-11-24T10:55:29.034Z,96064
2022-11-24T10:56:29.012Z,96063
2022-11-24T10:57:29.042Z,96070
2022-11-24T10:58:32.953Z,96060
2022-11-24T10:59:28.969Z,96061
2022-11-24T11:00:29.018Z,96062
2022-11-24T11:01:29.024Z,96059
2022-11-24T11:02:29.229Z,96055
2022-11-24T11:03:28.979Z,96061
2022-11-24T11:04:29.032Z,96061
2022-11-24T11:05:29.014Z,96062
2022-11-24T11:06:29.036Z,96060
2022-11-24T11:07:29.059Z,96064
2022-11-24T11:08:29.030Z,96062
2022-11-24T11:09:28.992Z,96065
2022-11-24T11:10:29.074Z,96062
2022-11-24T11:11:29.025Z,96062
2022-11-24T11:12:43.505Z,96062
2022-11-24T11:13:29.011Z,96062
2022-11-24T11:14:29.017Z,96061
2022-11-24T11:15:29.200Z,96064
2022-11-24T11:17:29.048Z,96065
2022-11-24T11:18:29.067Z,96070
2022-11-24T11:19:47.942Z,96070
2022-11-24T11:21:29.065Z,96070
2022-11-24T11:22:29.043Z,96068
2022-11-24T11:23:29.133Z,96068
2022-11-24T11:25:29.089Z,96068
2022-11-24T11:26:29.071Z,96078
2022-11-24T11:27:29.059Z,96070
2022-11-24T11:28:29.100Z,96078
2022-11-24T11:31:29.162Z,96079
2022-11-24T11:34:30.445Z,96084
2022-11-24T11:35:29.061Z,96084
2022-11-24T11:36:29.156Z,96090
2022-11-24T11:37:29.058Z,96091
2022-11-24T11:38:29.137Z,96097
2022-11-24T11:40:29.063Z,96094
2022-11-24T11:41:29.237Z,96093
2022-11-24T11:42:53.816Z,96093
2022-11-24T11:43:29.091Z,96092
2022-11-24T11:44:29.112Z,96096
2022-11-24T11:45:29.179Z,96092
2022-11-24T11:46:29.297Z,96094
2022-11-24T11:47:29.152Z,96096
2022-11-24T11:48:31.427Z,96097
2022-11-24T11:49:29.135Z,96097
2022-11-24T11:50:29.154Z,96096
2022-11-24T11:51:29.304Z,96095
2022-11-24T11:52:29.155Z,96098
2022-11-24T11:53:29.096Z,96100
2022-11-24T11:54:29.187Z,96099
2022-11-24T11:55:29.109Z,96099
2022-11-24T11:56:29.130Z,96100
2022-11-24T11:57:29.119Z,96102
2022-11-24T11:58:29.163Z,96100
2022-11-24T11:59:29.147Z,96103
2022-11-24T12:00:29.125Z,96104
2022-11-24T12:01:29.152Z,96107
2022-11-24T12:02:29.307Z,96111
2022-11-24T12:03:29.264Z,96108
2022-11-24T12:04:29.168Z,96099
2022-11-24T12:05:29.131Z,96099
2022-11-24T12:06:29.188Z,96098
2022-11-24T12:07:29.314Z,96098
2022-11-24T12:08:29.145Z,96102
2022-11-24T12:09:29.176Z,96094
2022-11-24T12:10:29.144Z,96099
2022-11-24T12:11:29.243Z,96094
2022-11-24T12:12:29.213Z,96093
2022-11-24T12:13:29.177Z,96093
2022-11-24T12:14:29.212Z,96089
2022-11-24T12:15:29.157Z,96086
2022-11-24T12:16:29.277Z,96083
2022-11-24T12:17:29.164Z,96086
2022-11-24T12:18:55.248Z,96086
2022-11-24T12:19:29.240Z,96087
2022-11-24T12:20:29.194Z,96088
2022-11-24T12:21:29.362Z,96088
2022-11-24T12:22:29.201Z,96093
2022-11-24T12:23:29.188Z,96096
2022-11-24T12:24:29.291Z,96092
2022-11-24T12:26:29.250Z,96091
2022-11-24T12:27:29.203Z,96091
2022-11-24T12:28:29.243Z,96093
2022-11-24T12:29:29.279Z,96098
2022-11-24T12:30:29.205Z,96095
2022-11-24T12:31:29.328Z,96096
2022-11-24T12:32:29.210Z,96102
2022-11-24T12:33:29.216Z,96095
2022-11-24T12:34:29.274Z,96099
2022-11-24T12:35:29.258Z,96098
2022-11-24T12:36:29.240Z,96096
2022-11-24T12:37:29.206Z,96096
2022-11-24T12:38:29.269Z,96093
2022-11-24T12:39:29.287Z,96093
2022-11-24T12:40:29.260Z,96089
2022-11-24T12:41:41.721Z,96087
2022-11-24T12:42:29.219Z,96087
2022-11-24T12:43:29.249Z,96089
2022-11-24T12:45:29.274Z,96092
2022-11-24T12:46:29.320Z,96092
2022-11-24T12:47:29.275Z,96086
2022-11-24T12:49:29.264Z,96088
2022-11-24T12:51:29.279Z,96084
2022-11-24T12:53:29.289Z,96082
2022-11-24T12:54:29.317Z,96085
2022-11-24T12:55:29.302Z,96085
2022-11-24T12:56:29.256Z,96081
2022-11-24T12:57:29.332Z,96078
2022-11-24T12:58:29.287Z,96077
2022-11-24T12:59:29.308Z,96078
2022-11-24T13:01:29.429Z,96072
2022-11-24T13:02:29.463Z,96076
2022-11-24T13:03:29.307Z,96076
2022-11-24T13:05:29.352Z,96071
2022-11-24T13:06:29.353Z,96069
2022-11-24T13:07:29.417Z,96073
2022-11-24T13:08:29.284Z,96076
2022-11-24T13:10:54.252Z,96076
2022-11-24T13:11:29.292Z,96076
2022-11-24T13:12:29.381Z,96073
2022-11-24T13:13:29.341Z,96078
2022-11-24T13:14:29.301Z,96082
2022-11-24T13:15:45.761Z,96077
2022-11-24T13:16:44.478Z,96079
2022-11-24T13:17:35.125Z,96083
2022-11-24T13:18:29.378Z,96084
2022-11-24T13:19:29.364Z,96085
2022-11-24T13:20:29.391Z,96087
2022-11-24T13:21:29.341Z,96084
2022-11-24T13:22:29.363Z,96085
2022-11-24T13:23:29.336Z,96088
2022-11-24T13:24:29.325Z,96088
2022-11-24T13:25:29.372Z,96084
2022-11-24T13:26:29.349Z,96083
2022-11-24T13:27:29.325Z,96083
2022-11-24T13:28:53.897Z,96083
2022-11-24T13:29:29.364Z,96081
2022-11-24T13:30:29.432Z,96083
2022-11-24T13:31:29.455Z,96084
2022-11-24T13:32:29.378Z,96100
2022-11-24T13:33:29.364Z,96087
2022-11-24T13:34:29.354Z,96085
2022-11-24T13:35:29.399Z,96092
2022-11-24T13:36:29.424Z,96087
2022-11-24T13:37:34.896Z,96086
2022-11-24T13:38:29.347Z,96082
2022-11-24T13:39:29.351Z,96086
2022-11-24T13:40:29.444Z,96087
2022-11-24T13:41:29.420Z,96087
2022-11-24T13:42:43.366Z,96089
2022-11-24T13:43:29.409Z,96089
2022-11-24T13:44:29.457Z,96087
2022-11-24T13:45:29.437Z,96091
2022-11-24T13:46:29.424Z,96091
2022-11-24T13:47:29.484Z,96091
2022-11-24T13:48:29.435Z,96091
2022-11-24T13:49:29.391Z,96090
2022-11-24T13:50:29.476Z,96091
2022-11-24T13:51:29.394Z,96092
2022-11-24T13:52:29.414Z,96091
2022-11-24T13:53:29.427Z,96088
2022-11-24T13:54:29.401Z,96097
2022-11-24T13:55:29.470Z,96090
2022-11-24T13:56:29.412Z,96090
2022-11-24T13:57:29.458Z,96089
2022-11-24T13:58:29.470Z,96086
2022-11-24T13:59:29.448Z,96089
2022-11-24T14:00:29.461Z,96091
2022-11-24T14:01:29.610Z,96087
2022-11-24T14:02:29.528Z,96086
2022-11-24T14:03:29.424Z,96086
2022-11-24T14:05:29.513Z,96088
2022-11-24T14:06:29.416Z,96088
2022-11-24T14:07:29.514Z,96091
2022-11-24T14:08:29.498Z,96086
2022-11-24T14:09:29.494Z,96087
2022-11-24T14:10:29.494Z,96085
2022-11-24T14:11:29.515Z,96082
2022-11-24T14:12:29.473Z,96079
2022-11-24T14:13:29.534Z,96078
2022-11-24T14:14:29.457Z,96078
2022-11-24T14:15:29.484Z,96074
2022-11-24T14:16:29.509Z,96074
2022-11-24T14:17:29.453Z,96073
2022-11-24T14:19:32.254Z,96072
2022-11-24T14:20:29.519Z,96073
2022-11-24T14:23:29.567Z,96071
2022-11-24T14:24:29.498Z,96072
2022-11-24T14:25:29.520Z,96072
2022-11-24T14:26:29.520Z,96075
2022-11-24T14:27:29.505Z,96077
2022-11-24T14:28:29.586Z,96074
2022-11-24T14:29:29.492Z,96074
2022-11-24T14:30:29.490Z,96076
2022-11-24T14:31:29.598Z,96073
2022-11-24T14:32:29.559Z,96075
2022-11-24T14:33:29.530Z,96072
2022-11-24T14:35:29.682Z,96073
2022-11-24T14:36:29.561Z,96073
2022-11-24T14:37:29.537Z,96069
2022-11-24T14:38:29.582Z,96068